Ottine, TX

11:44 PM CDT on April 21, 2015 (GMT -0500)
New Braunfels Municipal | | Change Station
CLOSE
Current Station
Airport
Location: New Braunfels,
Elevation: 643 ft
Nearby Weather Stations

Elev 643 ft 29.71 °N, 98.05 °W | Updated 53 minutes ago

Overcast
Overcast
71 °F
Feels Like 71 °F
N
9
Wind Variable Wind from SSE

Today
High -- | Low -- °F
--% Chance of Precip.
Yesterday
High -- | Low -- °F
Precip. -- in
6:57 AM 8:00 PM
Waxing Crescent, 15% visible
Pressure 29.93 in
Visibility 10.0 miles
Clouds Overcast 5000 ft
Dew Point 65 °F
Humidity 81%
Rainfall 0.00 in
Snow Depth Not available.
UV 0 out of 12
Pollen 8.70 out of 12
Air Quality Not available.
Flu Activity Local Activity
METAR KBAZ 220351Z AUTO 16008KT 10SM OVC050 22/18 A2994 RMK AO2 SLP133 T02170183

More Conditions Fewer Conditions

Pressure 29.93 in
Visibility 10.0 miles
Clouds Overcast 5000 ft
Dew Point 65 °F
Humidity 81%
Rainfall 0.00 in
Snow Depth Not available.
UV 0 out of 12
Pollen 8.70 out of 12
Air Quality Not available.
Flu Activity Local Activity
METAR KBAZ 220351Z AUTO 16008KT 10SM OVC050 22/18 A2994 RMK AO2 SLP133 T02170183

More Conditions Fewer Conditions

10-Day Weather Forecast

Almanac

Astronomy

Apr. 21, 2015 Rise Set
Actual Time
Civil Twilight
Nautical Twilight
Astronomical Twilight
Moon
Length of Visible Light
Length of Day
Tomorrow will be .
, % of the Moon is Illuminated

Today's Extremes

State Highs State Lows

Community

WunderPhotos

Upload Photos

1,815,668 photos uploaded!

WunderBlogs® & News

Nearby

Air Quality

  Air Quality AQ Index Pollutant
Not available.

Snow Depth

Station Depth Elevation

Earthquake Activity

City Distance Mag. Time & Date
Minimum magnitude displayed is 2.5.

Coastal Water Temperatures

Place Temperature

Stations

Nearby Weather Stations

Station Location Temp. Windchill Dew Point Humidity Wind Precip. Elev Updated Type